sensor_id;sensor_type;location;lat;lon;timestamp;P1;durP1;ratioP1;P2;durP2;ratioP2
5553;SDS011;2800;49.528;8.666;2022-10-04T00:02:19;11.70;;;6.50;;
5553;SDS011;2800;49.528;8.666;2022-10-04T00:04:56;16.07;;;6.30;;
5553;SDS011;2800;49.528;8.666;2022-10-04T00:07:28;14.07;;;7.07;;
5553;SDS011;2800;49.528;8.666;2022-10-04T00:09:58;11.60;;;6.70;;
5553;SDS011;2800;49.528;8.666;2022-10-04T00:12:34;12.40;;;6.90;;
5553;SDS011;2800;49.528;8.666;2022-10-04T00:15:05;18.80;;;7.97;;
5553;SDS011;2800;49.528;8.666;2022-10-04T00:17:43;12.37;;;6.20;;
5553;SDS011;2800;49.528;8.666;2022-10-04T00:20:55;11.70;;;6.43;;
5553;SDS011;2800;49.528;8.666;2022-10-04T00:25:53;13.83;;;6.73;;
5553;SDS011;2800;49.528;8.666;2022-10-04T00:31:07;18.40;;;7.37;;
5553;SDS011;2800;49.528;8.666;2022-10-04T00:33:40;11.77;;;7.40;;
5553;SDS011;2800;49.528;8.666;2022-10-04T00:41:28;11.43;;;6.23;;
5553;SDS011;2800;49.528;8.666;2022-10-04T00:44:14;13.87;;;6.30;;
5553;SDS011;2800;49.528;8.666;2022-10-04T00:46:52;14.20;;;6.10;;
5553;SDS011;2800;49.528;8.666;2022-10-04T00:49:21;13.93;;;6.60;;
5553;SDS011;2800;49.528;8.666;2022-10-04T00:52:00;16.80;;;6.20;;
5553;SDS011;2800;49.528;8.666;2022-10-04T00:54:33;13.83;;;5.90;;
5553;SDS011;2800;49.528;8.666;2022-10-04T00:57:07;18.03;;;6.40;;
5553;SDS011;2800;49.528;8.666;2022-10-04T00:59:40;15.47;;;6.40;;
5553;SDS011;2800;49.528;8.666;2022-10-04T01:04:48;18.30;;;7.00;;
5553;SDS011;2800;49.528;8.666;2022-10-04T01:07:32;12.10;;;6.70;;
5553;SDS011;2800;49.528;8.666;2022-10-04T01:10:10;17.70;;;7.13;;
5553;SDS011;2800;49.528;8.666;2022-10-04T01:12:44;14.77;;;6.40;;
5553;SDS011;2800;49.528;8.666;2022-10-04T01:20:58;20.00;;;7.57;;
5553;SDS011;2800;49.528;8.666;2022-10-04T01:26:00;13.40;;;6.83;;
5553;SDS011;2800;49.528;8.666;2022-10-04T01:28:29;17.70;;;7.53;;
5553;SDS011;2800;49.528;8.666;2022-10-04T01:30:55;12.70;;;7.03;;
5553;SDS011;2800;49.528;8.666;2022-10-04T01:33:20;15.10;;;7.10;;
5553;SDS011;2800;49.528;8.666;2022-10-04T01:35:46;18.40;;;7.30;;
5553;SDS011;2800;49.528;8.666;2022-10-04T01:38:12;15.70;;;7.23;;
5553;SDS011;2800;49.528;8.666;2022-10-04T01:40:44;10.40;;;5.20;;
5553;SDS011;2800;49.528;8.666;2022-10-04T01:43:15;18.97;;;7.80;;
5553;SDS011;2800;49.528;8.666;2022-10-04T01:45:47;15.60;;;7.73;;
5553;SDS011;2800;49.528;8.666;2022-10-04T01:48:19;13.20;;;7.37;;
5553;SDS011;2800;49.528;8.666;2022-10-04T01:53:27;23.27;;;7.67;;
5553;SDS011;2800;49.528;8.666;2022-10-04T01:56:01;14.53;;;6.53;;
5553;SDS011;2800;49.528;8.666;2022-10-04T01:58:32;12.90;;;6.63;;
5553;SDS011;2800;49.528;8.666;2022-10-04T02:01:10;12.77;;;6.53;;
5553;SDS011;2800;49.528;8.666;2022-10-04T02:03:43;12.00;;;6.63;;
5553;SDS011;2800;49.528;8.666;2022-10-04T02:06:16;16.80;;;7.40;;
5553;SDS011;2800;49.528;8.666;2022-10-04T02:08:46;16.60;;;8.00;;
5553;SDS011;2800;49.528;8.666;2022-10-04T02:11:18;17.93;;;7.40;;
5553;SDS011;2800;49.528;8.666;2022-10-04T02:13:45;16.63;;;7.80;;
5553;SDS011;2800;49.528;8.666;2022-10-04T02:16:14;13.93;;;6.90;;
5553;SDS011;2800;49.528;8.666;2022-10-04T02:18:41;12.33;;;6.90;;
5553;SDS011;2800;49.528;8.666;2022-10-04T02:21:09;11.50;;;6.40;;
5553;SDS011;2800;49.528;8.666;2022-10-04T02:23:36;17.37;;;7.37;;
5553;SDS011;2800;49.528;8.666;2022-10-04T02:26:05;12.00;;;6.33;;
5553;SDS011;2800;49.528;8.666;2022-10-04T02:28:32;19.73;;;7.50;;
5553;SDS011;2800;49.528;8.666;2022-10-04T02:30:58;18.20;;;7.03;;
5553;SDS011;2800;49.528;8.666;2022-10-04T02:33:44;14.87;;;6.97;;
5553;SDS011;2800;49.528;8.666;2022-10-04T02:36:12;18.03;;;6.70;;
5553;SDS011;2800;49.528;8.666;2022-10-04T02:38:50;10.37;;;6.07;;
5553;SDS011;2800;49.528;8.666;2022-10-04T02:41:31;14.50;;;6.20;;
5553;SDS011;2800;49.528;8.666;2022-10-04T02:44:02;15.57;;;6.60;;
5553;SDS011;2800;49.528;8.666;2022-10-04T02:49:21;17.10;;;7.03;;
5553;SDS011;2800;49.528;8.666;2022-10-04T02:51:57;14.47;;;7.23;;
5553;SDS011;2800;49.528;8.666;2022-10-04T02:54:35;14.90;;;6.50;;
5553;SDS011;2800;49.528;8.666;2022-10-04T02:57:21;12.40;;;6.40;;
5553;SDS011;2800;49.528;8.666;2022-10-04T02:59:47;15.03;;;7.67;;
5553;SDS011;2800;49.528;8.666;2022-10-04T03:02:27;10.43;;;6.40;;
5553;SDS011;2800;49.528;8.666;2022-10-04T03:04:55;17.50;;;7.37;;
5553;SDS011;2800;49.528;8.666;2022-10-04T03:07:28;15.80;;;6.63;;
5553;SDS011;2800;49.528;8.666;2022-10-04T03:09:56;13.77;;;6.60;;
5553;SDS011;2800;49.528;8.666;2022-10-04T03:12:22;19.30;;;8.07;;
5553;SDS011;2800;49.528;8.666;2022-10-04T03:14:49;13.83;;;5.97;;
5553;SDS011;2800;49.528;8.666;2022-10-04T03:17:17;13.47;;;6.40;;
5553;SDS011;2800;49.528;8.666;2022-10-04T03:19:43;12.63;;;6.83;;
5553;SDS011;2800;49.528;8.666;2022-10-04T03:22:12;15.07;;;6.87;;
5553;SDS011;2800;49.528;8.666;2022-10-04T03:24:45;12.23;;;6.30;;
5553;SDS011;2800;49.528;8.666;2022-10-04T03:27:24;19.30;;;7.70;;
5553;SDS011;2800;49.528;8.666;2022-10-04T03:29:52;13.57;;;6.97;;
5553;SDS011;2800;49.528;8.666;2022-10-04T03:32:19;16.20;;;6.60;;
5553;SDS011;2800;49.528;8.666;2022-10-04T03:34:52;18.30;;;7.10;;
5553;SDS011;2800;49.528;8.666;2022-10-04T03:37:21;13.23;;;6.50;;
5553;SDS011;2800;49.528;8.666;2022-10-04T03:39:49;15.10;;;6.50;;
5553;SDS011;2800;49.528;8.666;2022-10-04T03:42:35;12.80;;;6.87;;
5553;SDS011;2800;49.528;8.666;2022-10-04T03:45:05;15.03;;;6.90;;
5553;SDS011;2800;49.528;8.666;2022-10-04T03:47:36;13.60;;;6.67;;
5553;SDS011;2800;49.528;8.666;2022-10-04T03:50:15;13.13;;;5.70;;
5553;SDS011;2800;49.528;8.666;2022-10-04T03:53:04;14.23;;;6.40;;
5553;SDS011;2800;49.528;8.666;2022-10-04T03:55:38;10.53;;;5.77;;
5553;SDS011;2800;49.528;8.666;2022-10-04T03:58:08;13.10;;;6.10;;
5553;SDS011;2800;49.528;8.666;2022-10-04T04:00:36;14.87;;;5.70;;
5553;SDS011;2800;49.528;8.666;2022-10-04T04:03:08;12.83;;;6.00;;
5553;SDS011;2800;49.528;8.666;2022-10-04T04:05:41;11.07;;;5.97;;
5553;SDS011;2800;49.528;8.666;2022-10-04T04:08:11;11.27;;;6.40;;
5553;SDS011;2800;49.528;8.666;2022-10-04T04:10:42;9.30;;;5.70;;
5553;SDS011;2800;49.528;8.666;2022-10-04T04:13:18;13.73;;;6.37;;
5553;SDS011;2800;49.528;8.666;2022-10-04T04:15:52;13.03;;;6.17;;
5553;SDS011;2800;49.528;8.666;2022-10-04T04:18:23;15.10;;;6.60;;
5553;SDS011;2800;49.528;8.666;2022-10-04T04:20:52;19.10;;;5.60;;
5553;SDS011;2800;49.528;8.666;2022-10-04T04:23:25;13.20;;;6.10;;
5553;SDS011;2800;49.528;8.666;2022-10-04T04:25:57;13.97;;;6.33;;
5553;SDS011;2800;49.528;8.666;2022-10-04T04:28:40;16.07;;;6.60;;
5553;SDS011;2800;49.528;8.666;2022-10-04T04:33:56;13.83;;;6.23;;
5553;SDS011;2800;49.528;8.666;2022-10-04T04:36:25;16.80;;;6.63;;
5553;SDS011;2800;49.528;8.666;2022-10-04T04:38:52;13.30;;;7.50;;
5553;SDS011;2800;49.528;8.666;2022-10-04T04:41:41;16.50;;;6.57;;
5553;SDS011;2800;49.528;8.666;2022-10-04T04:44:16;12.40;;;6.93;;
5553;SDS011;2800;49.528;8.666;2022-10-04T04:46:44;12.13;;;6.70;;
5553;SDS011;2800;49.528;8.666;2022-10-04T04:49:11;15.23;;;6.80;;
5553;SDS011;2800;49.528;8.666;2022-10-04T04:51:39;14.13;;;7.03;;
5553;SDS011;2800;49.528;8.666;2022-10-04T04:54:10;14.47;;;6.40;;
5553;SDS011;2800;49.528;8.666;2022-10-04T04:56:36;14.00;;;7.00;;
5553;SDS011;2800;49.528;8.666;2022-10-04T04:59:02;11.90;;;6.47;;
5553;SDS011;2800;49.528;8.666;2022-10-04T05:01:35;14.20;;;6.50;;
5553;SDS011;2800;49.528;8.666;2022-10-04T05:06:33;12.93;;;7.20;;
5553;SDS011;2800;49.528;8.666;2022-10-04T05:09:00;15.50;;;6.67;;
5553;SDS011;2800;49.528;8.666;2022-10-04T05:11:28;12.03;;;6.80;;
5553;SDS011;2800;49.528;8.666;2022-10-04T05:16:34;15.17;;;7.03;;
5553;SDS011;2800;49.528;8.666;2022-10-04T05:19:24;22.43;;;10.17;;
5553;SDS011;2800;49.528;8.666;2022-10-04T05:21:55;20.30;;;10.40;;
5553;SDS011;2800;49.528;8.666;2022-10-04T05:24:33;13.77;;;7.53;;
5553;SDS011;2800;49.528;8.666;2022-10-04T05:27:03;16.47;;;9.90;;
5553;SDS011;2800;49.528;8.666;2022-10-04T05:29:35;16.40;;;8.83;;
5553;SDS011;2800;49.528;8.666;2022-10-04T05:35:12;18.30;;;9.30;;
5553;SDS011;2800;49.528;8.666;2022-10-04T05:41:02;19.17;;;9.10;;
5553;SDS011;2800;49.528;8.666;2022-10-04T05:43:35;15.97;;;8.63;;
5553;SDS011;2800;49.528;8.666;2022-10-04T05:48:42;14.27;;;10.40;;
5553;SDS011;2800;49.528;8.666;2022-10-04T05:51:17;12.80;;;9.27;;
5553;SDS011;2800;49.528;8.666;2022-10-04T05:53:44;14.53;;;9.30;;
5553;SDS011;2800;49.528;8.666;2022-10-04T06:07:11;13.70;;;8.50;;
5553;SDS011;2800;49.528;8.666;2022-10-04T06:10:04;14.83;;;9.17;;
5553;SDS011;2800;49.528;8.666;2022-10-04T06:22:17;11.03;;;7.80;;
5553;SDS011;2800;49.528;8.666;2022-10-04T06:24:48;12.40;;;8.13;;
5553;SDS011;2800;49.528;8.666;2022-10-04T06:27:39;16.77;;;8.50;;
5553;SDS011;2800;49.528;8.666;2022-10-04T06:30:15;14.77;;;8.23;;
5553;SDS011;2800;49.528;8.666;2022-10-04T06:33:03;12.90;;;8.90;;
5553;SDS011;2800;49.528;8.666;2022-10-04T06:41:04;19.17;;;13.37;;
5553;SDS011;2800;49.528;8.666;2022-10-04T06:43:50;19.40;;;12.13;;
5553;SDS011;2800;49.528;8.666;2022-10-04T06:46:45;16.90;;;10.80;;
5553;SDS011;2800;49.528;8.666;2022-10-04T06:49:24;22.67;;;17.67;;
5553;SDS011;2800;49.528;8.666;2022-10-04T06:52:23;17.90;;;9.97;;
5553;SDS011;2800;49.528;8.666;2022-10-04T07:03:23;18.10;;;8.70;;
5553;SDS011;2800;49.528;8.666;2022-10-04T07:10:58;11.77;;;8.50;;
5553;SDS011;2800;49.528;8.666;2022-10-04T07:21:23;13.73;;;8.10;;
5553;SDS011;2800;49.528;8.666;2022-10-04T07:23:55;18.30;;;8.27;;
5553;SDS011;2800;49.528;8.666;2022-10-04T07:29:02;22.13;;;8.63;;
5553;SDS011;2800;49.528;8.666;2022-10-04T07:34:51;13.00;;;8.30;;
5553;SDS011;2800;49.528;8.666;2022-10-04T07:37:15;15.93;;;8.10;;
5553;SDS011;2800;49.528;8.666;2022-10-04T07:45:16;14.93;;;8.27;;
5553;SDS011;2800;49.528;8.666;2022-10-04T07:47:46;11.67;;;8.20;;
5553;SDS011;2800;49.528;8.666;2022-10-04T07:50:19;13.07;;;7.67;;
5553;SDS011;2800;49.528;8.666;2022-10-04T07:55:40;16.27;;;7.47;;
5553;SDS011;2800;49.528;8.666;2022-10-04T08:03:44;14.37;;;7.17;;
5553;SDS011;2800;49.528;8.666;2022-10-04T08:06:35;11.67;;;7.10;;
5553;SDS011;2800;49.528;8.666;2022-10-04T08:17:57;14.40;;;6.90;;
5553;SDS011;2800;49.528;8.666;2022-10-04T08:23:33;12.57;;;6.77;;
5553;SDS011;2800;49.528;8.666;2022-10-04T08:29:14;14.90;;;7.00;;
5553;SDS011;2800;49.528;8.666;2022-10-04T08:32:04;14.00;;;7.20;;
5553;SDS011;2800;49.528;8.666;2022-10-04T08:35:00;11.90;;;7.13;;
5553;SDS011;2800;49.528;8.666;2022-10-04T08:46:16;16.23;;;7.33;;
5553;SDS011;2800;49.528;8.666;2022-10-04T08:57:22;16.27;;;9.60;;
5553;SDS011;2800;49.528;8.666;2022-10-04T09:06:22;15.20;;;8.73;;
5553;SDS011;2800;49.528;8.666;2022-10-04T09:09:06;15.97;;;8.43;;
5553;SDS011;2800;49.528;8.666;2022-10-04T09:11:51;14.47;;;8.60;;
5553;SDS011;2800;49.528;8.666;2022-10-04T09:14:49;15.13;;;7.60;;
5553;SDS011;2800;49.528;8.666;2022-10-04T09:20:31;17.40;;;8.43;;
5553;SDS011;2800;49.528;8.666;2022-10-04T09:26:23;17.20;;;7.50;;
5553;SDS011;2800;49.528;8.666;2022-10-04T09:55:36;16.93;;;10.57;;
5553;SDS011;2800;49.528;8.666;2022-10-04T10:00:45;19.20;;;9.70;;
5553;SDS011;2800;49.528;8.666;2022-10-04T10:08:58;17.63;;;8.83;;
5553;SDS011;2800;49.528;8.666;2022-10-04T10:11:37;17.13;;;9.10;;
5553;SDS011;2800;49.528;8.666;2022-10-04T10:17:40;17.80;;;8.53;;
5553;SDS011;2800;49.528;8.666;2022-10-04T10:20:32;14.57;;;8.60;;
5553;SDS011;2800;49.528;8.666;2022-10-04T10:28:27;20.10;;;8.57;;
5553;SDS011;2800;49.528;8.666;2022-10-04T10:39:24;14.70;;;8.20;;
5553;SDS011;2800;49.528;8.666;2022-10-04T10:47:58;17.20;;;7.83;;
5553;SDS011;2800;49.528;8.666;2022-10-04T11:02:14;15.70;;;8.27;;
5553;SDS011;2800;49.528;8.666;2022-10-04T11:07:53;12.50;;;7.80;;
5553;SDS011;2800;49.528;8.666;2022-10-04T11:10:24;12.17;;;7.40;;
5553;SDS011;2800;49.528;8.666;2022-10-04T11:24:13;16.73;;;8.20;;
5553;SDS011;2800;49.528;8.666;2022-10-04T11:27:03;17.63;;;7.60;;
5553;SDS011;2800;49.528;8.666;2022-10-04T11:32:51;13.67;;;7.47;;
5553;SDS011;2800;49.528;8.666;2022-10-04T11:46:19;15.17;;;6.70;;
5553;SDS011;2800;49.528;8.666;2022-10-04T12:00:00;17.73;;;5.83;;
5553;SDS011;2800;49.528;8.666;2022-10-04T12:02:32;11.27;;;5.87;;
5553;SDS011;2800;49.528;8.666;2022-10-04T12:10:41;15.07;;;6.40;;
5553;SDS011;2800;49.528;8.666;2022-10-04T12:13:19;11.03;;;5.33;;
5553;SDS011;2800;49.528;8.666;2022-10-04T12:21:31;15.70;;;6.47;;
5553;SDS011;2800;49.528;8.666;2022-10-04T12:24:24;9.17;;;5.17;;
5553;SDS011;2800;49.528;8.666;2022-10-04T12:29:57;13.03;;;5.20;;
5553;SDS011;2800;49.528;8.666;2022-10-04T12:32:49;12.77;;;4.80;;
5553;SDS011;2800;49.528;8.666;2022-10-04T12:52:14;9.90;;;4.23;;
5553;SDS011;2800;49.528;8.666;2022-10-04T12:54:45;17.57;;;3.70;;
5553;SDS011;2800;49.528;8.666;2022-10-04T12:57:24;9.43;;;4.03;;
5553;SDS011;2800;49.528;8.666;2022-10-04T13:05:25;11.93;;;4.57;;
5553;SDS011;2800;49.528;8.666;2022-10-04T13:08:14;8.00;;;3.80;;
5553;SDS011;2800;49.528;8.666;2022-10-04T13:10:56;9.57;;;3.30;;
5553;SDS011;2800;49.528;8.666;2022-10-04T13:18:52;12.87;;;3.37;;
5553;SDS011;2800;49.528;8.666;2022-10-04T13:21:46;11.63;;;3.47;;
5553;SDS011;2800;49.528;8.666;2022-10-04T13:27:59;9.43;;;3.30;;
5553;SDS011;2800;49.528;8.666;2022-10-04T13:36:07;9.00;;;3.17;;
5553;SDS011;2800;49.528;8.666;2022-10-04T13:41:45;8.83;;;3.33;;
5553;SDS011;2800;49.528;8.666;2022-10-04T13:47:24;8.80;;;3.23;;
5553;SDS011;2800;49.528;8.666;2022-10-04T13:50:04;8.17;;;3.50;;
5553;SDS011;2800;49.528;8.666;2022-10-04T13:59:16;7.30;;;3.00;;
5553;SDS011;2800;49.528;8.666;2022-10-04T14:05:17;7.50;;;3.20;;
5553;SDS011;2800;49.528;8.666;2022-10-04T14:10:36;11.63;;;3.20;;
5553;SDS011;2800;49.528;8.666;2022-10-04T14:22:46;13.97;;;3.40;;
5553;SDS011;2800;49.528;8.666;2022-10-04T14:33:53;7.30;;;3.00;;
5553;SDS011;2800;49.528;8.666;2022-10-04T14:36:44;7.50;;;2.70;;
5553;SDS011;2800;49.528;8.666;2022-10-04T14:42:36;7.23;;;3.50;;
5553;SDS011;2800;49.528;8.666;2022-10-04T14:48:00;7.50;;;2.80;;
5553;SDS011;2800;49.528;8.666;2022-10-04T14:50:54;10.33;;;3.50;;
5553;SDS011;2800;49.528;8.666;2022-10-04T15:02:20;7.13;;;3.17;;
5553;SDS011;2800;49.528;8.666;2022-10-04T15:14:03;9.80;;;3.33;;
5553;SDS011;2800;49.528;8.666;2022-10-04T15:16:55;9.77;;;3.07;;
5553;SDS011;2800;49.528;8.666;2022-10-04T15:19:30;9.40;;;3.03;;
5553;SDS011;2800;49.528;8.666;2022-10-04T15:22:21;7.33;;;3.00;;
5553;SDS011;2800;49.528;8.666;2022-10-04T15:25:00;10.87;;;3.20;;
5553;SDS011;2800;49.528;8.666;2022-10-04T15:36:08;9.57;;;3.13;;
5553;SDS011;2800;49.528;8.666;2022-10-04T15:38:52;15.03;;;4.03;;
5553;SDS011;2800;49.528;8.666;2022-10-04T15:41:32;9.87;;;3.30;;
5553;SDS011;2800;49.528;8.666;2022-10-04T15:44:12;12.47;;;3.70;;
5553;SDS011;2800;49.528;8.666;2022-10-04T15:46:52;6.27;;;2.80;;
5553;SDS011;2800;49.528;8.666;2022-10-04T15:55:16;9.30;;;3.23;;
5553;SDS011;2800;49.528;8.666;2022-10-04T16:04:04;10.50;;;3.73;;
5553;SDS011;2800;49.528;8.666;2022-10-04T16:06:57;7.80;;;2.90;;
5553;SDS011;2800;49.528;8.666;2022-10-04T16:20:23;5.33;;;2.57;;
5553;SDS011;2800;49.528;8.666;2022-10-04T16:23:29;13.80;;;3.87;;
5553;SDS011;2800;49.528;8.666;2022-10-04T16:28:47;10.00;;;3.60;;
5553;SDS011;2800;49.528;8.666;2022-10-04T16:31:39;7.80;;;3.10;;
5553;SDS011;2800;49.528;8.666;2022-10-04T16:37:24;7.93;;;2.80;;
5553;SDS011;2800;49.528;8.666;2022-10-04T16:39:54;10.57;;;4.40;;
5553;SDS011;2800;49.528;8.666;2022-10-04T16:42:49;7.83;;;3.97;;
5553;SDS011;2800;49.528;8.666;2022-10-04T16:53:54;10.17;;;4.80;;
5553;SDS011;2800;49.528;8.666;2022-10-04T17:15:47;10.90;;;3.87;;
5553;SDS011;2800;49.528;8.666;2022-10-04T17:18:34;10.60;;;5.17;;
5553;SDS011;2800;49.528;8.666;2022-10-04T17:21:37;15.57;;;6.60;;
5553;SDS011;2800;49.528;8.666;2022-10-04T17:27:16;8.60;;;4.87;;
5553;SDS011;2800;49.528;8.666;2022-10-04T17:32:44;10.53;;;5.63;;
5553;SDS011;2800;49.528;8.666;2022-10-04T17:35:43;13.43;;;4.80;;
5553;SDS011;2800;49.528;8.666;2022-10-04T17:38:23;10.20;;;5.17;;
5553;SDS011;2800;49.528;8.666;2022-10-04T17:49:33;10.60;;;6.00;;
5553;SDS011;2800;49.528;8.666;2022-10-04T17:52:31;17.23;;;9.53;;
5553;SDS011;2800;49.528;8.666;2022-10-04T17:55:25;17.93;;;10.03;;
5553;SDS011;2800;49.528;8.666;2022-10-04T17:57:59;11.80;;;6.80;;
5553;SDS011;2800;49.528;8.666;2022-10-04T18:00:44;16.43;;;6.90;;
5553;SDS011;2800;49.528;8.666;2022-10-04T18:03:36;11.33;;;7.40;;
5553;SDS011;2800;49.528;8.666;2022-10-04T18:06:16;11.57;;;4.77;;
5553;SDS011;2800;49.528;8.666;2022-10-04T18:08:59;11.47;;;5.23;;
5553;SDS011;2800;49.528;8.666;2022-10-04T18:11:40;9.37;;;4.23;;
5553;SDS011;2800;49.528;8.666;2022-10-04T18:14:39;13.30;;;5.20;;
5553;SDS011;2800;49.528;8.666;2022-10-04T18:17:12;9.00;;;4.00;;
5553;SDS011;2800;49.528;8.666;2022-10-04T18:20:22;7.70;;;3.90;;
5553;SDS011;2800;49.528;8.666;2022-10-04T18:22:55;9.30;;;4.10;;
5553;SDS011;2800;49.528;8.666;2022-10-04T18:25:24;10.53;;;3.80;;
5553;SDS011;2800;49.528;8.666;2022-10-04T18:28:10;7.50;;;3.70;;
5553;SDS011;2800;49.528;8.666;2022-10-04T18:33:14;8.70;;;3.77;;
5553;SDS011;2800;49.528;8.666;2022-10-04T18:35:51;10.73;;;4.30;;
5553;SDS011;2800;49.528;8.666;2022-10-04T18:38:27;8.73;;;3.83;;
5553;SDS011;2800;49.528;8.666;2022-10-04T18:40:54;13.80;;;4.10;;
5553;SDS011;2800;49.528;8.666;2022-10-04T18:43:41;9.90;;;4.50;;
5553;SDS011;2800;49.528;8.666;2022-10-04T18:46:17;14.03;;;4.43;;
5553;SDS011;2800;49.528;8.666;2022-10-04T18:48:52;14.97;;;3.97;;
5553;SDS011;2800;49.528;8.666;2022-10-04T18:51:27;15.63;;;4.83;;
5553;SDS011;2800;49.528;8.666;2022-10-04T18:54:08;15.70;;;3.80;;
5553;SDS011;2800;49.528;8.666;2022-10-04T19:02:55;10.37;;;3.50;;
5553;SDS011;2800;49.528;8.666;2022-10-04T19:06:24;8.20;;;3.70;;
5553;SDS011;2800;49.528;8.666;2022-10-04T19:08:47;9.00;;;3.63;;
5553;SDS011;2800;49.528;8.666;2022-10-04T19:14:21;11.23;;;3.80;;
5553;SDS011;2800;49.528;8.666;2022-10-04T19:17:14;9.50;;;3.87;;
5553;SDS011;2800;49.528;8.666;2022-10-04T19:20:02;9.50;;;4.10;;
5553;SDS011;2800;49.528;8.666;2022-10-04T19:22:44;14.30;;;4.30;;
5553;SDS011;2800;49.528;8.666;2022-10-04T19:25:23;9.40;;;3.97;;
5553;SDS011;2800;49.528;8.666;2022-10-04T19:27:55;15.77;;;3.90;;
5553;SDS011;2800;49.528;8.666;2022-10-04T19:30:40;9.70;;;4.00;;
5553;SDS011;2800;49.528;8.666;2022-10-04T19:33:32;7.77;;;4.10;;
5553;SDS011;2800;49.528;8.666;2022-10-04T19:38:54;8.03;;;3.70;;
5553;SDS011;2800;49.528;8.666;2022-10-04T19:41:30;9.33;;;4.37;;
5553;SDS011;2800;49.528;8.666;2022-10-04T19:49:55;8.20;;;4.20;;
5553;SDS011;2800;49.528;8.666;2022-10-04T19:55:49;17.23;;;4.83;;
5553;SDS011;2800;49.528;8.666;2022-10-04T20:01:14;12.17;;;5.37;;
5553;SDS011;2800;49.528;8.666;2022-10-04T20:03:45;15.07;;;4.80;;
5553;SDS011;2800;49.528;8.666;2022-10-04T20:06:20;15.23;;;5.00;;
5553;SDS011;2800;49.528;8.666;2022-10-04T20:08:50;10.23;;;4.77;;
5553;SDS011;2800;49.528;8.666;2022-10-04T20:11:24;9.90;;;4.20;;
5553;SDS011;2800;49.528;8.666;2022-10-04T20:19:19;9.93;;;5.93;;
5553;SDS011;2800;49.528;8.666;2022-10-04T20:27:00;20.93;;;5.67;;
5553;SDS011;2800;49.528;8.666;2022-10-04T20:32:08;12.90;;;5.17;;
5553;SDS011;2800;49.528;8.666;2022-10-04T20:34:57;11.07;;;4.90;;
5553;SDS011;2800;49.528;8.666;2022-10-04T20:40:07;16.40;;;6.40;;
5553;SDS011;2800;49.528;8.666;2022-10-04T20:42:33;13.23;;;8.33;;
5553;SDS011;2800;49.528;8.666;2022-10-04T20:53:01;17.33;;;10.80;;
5553;SDS011;2800;49.528;8.666;2022-10-04T20:55:31;21.57;;;13.67;;
5553;SDS011;2800;49.528;8.666;2022-10-04T20:58:00;19.10;;;10.80;;
5553;SDS011;2800;49.528;8.666;2022-10-04T21:00:52;17.23;;;8.87;;
5553;SDS011;2800;49.528;8.666;2022-10-04T21:03:19;12.97;;;8.67;;
5553;SDS011;2800;49.528;8.666;2022-10-04T21:05:57;17.53;;;8.83;;
5553;SDS011;2800;49.528;8.666;2022-10-04T21:08:30;11.07;;;6.97;;
5553;SDS011;2800;49.528;8.666;2022-10-04T21:13:37;24.70;;;12.43;;
5553;SDS011;2800;49.528;8.666;2022-10-04T21:16:34;21.83;;;13.30;;
5553;SDS011;2800;49.528;8.666;2022-10-04T21:27:24;16.30;;;8.50;;
5553;SDS011;2800;49.528;8.666;2022-10-04T21:29:55;16.37;;;9.33;;
5553;SDS011;2800;49.528;8.666;2022-10-04T21:32:22;18.73;;;12.97;;
5553;SDS011;2800;49.528;8.666;2022-10-04T21:34:48;18.70;;;12.67;;
5553;SDS011;2800;49.528;8.666;2022-10-04T21:37:15;13.50;;;7.87;;
5553;SDS011;2800;49.528;8.666;2022-10-04T21:39:41;19.90;;;10.73;;
5553;SDS011;2800;49.528;8.666;2022-10-04T21:42:06;18.70;;;10.90;;
5553;SDS011;2800;49.528;8.666;2022-10-04T21:44:32;13.80;;;8.57;;
5553;SDS011;2800;49.528;8.666;2022-10-04T21:46:57;15.80;;;9.00;;
5553;SDS011;2800;49.528;8.666;2022-10-04T21:49:23;16.23;;;8.70;;
5553;SDS011;2800;49.528;8.666;2022-10-04T21:51:48;14.33;;;8.20;;
5553;SDS011;2800;49.528;8.666;2022-10-04T21:54:14;17.03;;;10.50;;
5553;SDS011;2800;49.528;8.666;2022-10-04T21:56:40;16.00;;;10.37;;
5553;SDS011;2800;49.528;8.666;2022-10-04T21:59:05;14.90;;;8.70;;
5553;SDS011;2800;49.528;8.666;2022-10-04T22:01:31;12.50;;;7.30;;
5553;SDS011;2800;49.528;8.666;2022-10-04T22:03:57;22.87;;;9.80;;
5553;SDS011;2800;49.528;8.666;2022-10-04T22:06:22;20.10;;;9.57;;
5553;SDS011;2800;49.528;8.666;2022-10-04T22:08:48;19.20;;;9.93;;
5553;SDS011;2800;49.528;8.666;2022-10-04T22:11:13;17.80;;;9.00;;
5553;SDS011;2800;49.528;8.666;2022-10-04T22:13:39;17.70;;;10.33;;
5553;SDS011;2800;49.528;8.666;2022-10-04T22:16:05;14.90;;;10.50;;
5553;SDS011;2800;49.528;8.666;2022-10-04T22:18:31;15.63;;;9.00;;
5553;SDS011;2800;49.528;8.666;2022-10-04T22:20:57;14.50;;;9.80;;
5553;SDS011;2800;49.528;8.666;2022-10-04T22:23:24;19.97;;;10.60;;
5553;SDS011;2800;49.528;8.666;2022-10-04T22:25:51;16.30;;;8.80;;
5553;SDS011;2800;49.528;8.666;2022-10-04T22:28:22;21.13;;;10.00;;
5553;SDS011;2800;49.528;8.666;2022-10-04T22:30:52;19.43;;;11.50;;
5553;SDS011;2800;49.528;8.666;2022-10-04T22:33:26;26.20;;;11.80;;
5553;SDS011;2800;49.528;8.666;2022-10-04T22:35:58;22.17;;;10.37;;
5553;SDS011;2800;49.528;8.666;2022-10-04T22:38:41;11.13;;;7.20;;
5553;SDS011;2800;49.528;8.666;2022-10-04T22:41:12;25.00;;;12.30;;
5553;SDS011;2800;49.528;8.666;2022-10-04T22:43:40;20.43;;;10.20;;
5553;SDS011;2800;49.528;8.666;2022-10-04T22:46:10;20.20;;;9.40;;
5553;SDS011;2800;49.528;8.666;2022-10-04T22:48:44;14.70;;;8.07;;
5553;SDS011;2800;49.528;8.666;2022-10-04T22:51:11;16.93;;;8.40;;
5553;SDS011;2800;49.528;8.666;2022-10-04T22:53:43;11.33;;;6.60;;
5553;SDS011;2800;49.528;8.666;2022-10-04T22:56:11;10.97;;;7.37;;
5553;SDS011;2800;49.528;8.666;2022-10-04T22:58:38;13.27;;;8.13;;
5553;SDS011;2800;49.528;8.666;2022-10-04T23:01:11;13.13;;;7.20;;
5553;SDS011;2800;49.528;8.666;2022-10-04T23:03:38;11.90;;;6.57;;
5553;SDS011;2800;49.528;8.666;2022-10-04T23:06:04;12.77;;;6.87;;
5553;SDS011;2800;49.528;8.666;2022-10-04T23:08:36;13.23;;;7.40;;
5553;SDS011;2800;49.528;8.666;2022-10-04T23:11:02;12.83;;;7.10;;
5553;SDS011;2800;49.528;8.666;2022-10-04T23:13:27;11.77;;;6.20;;
5553;SDS011;2800;49.528;8.666;2022-10-04T23:16:00;11.23;;;6.13;;
5553;SDS011;2800;49.528;8.666;2022-10-04T23:18:36;10.30;;;6.43;;
5553;SDS011;2800;49.528;8.666;2022-10-04T23:21:04;14.40;;;7.60;;
5553;SDS011;2800;49.528;8.666;2022-10-04T23:23:55;11.50;;;5.80;;
5553;SDS011;2800;49.528;8.666;2022-10-04T23:26:37;17.20;;;6.90;;
5553;SDS011;2800;49.528;8.666;2022-10-04T23:29:13;14.33;;;7.10;;
5553;SDS011;2800;49.528;8.666;2022-10-04T23:31:57;15.00;;;6.70;;
5553;SDS011;2800;49.528;8.666;2022-10-04T23:34:27;14.70;;;6.33;;
5553;SDS011;2800;49.528;8.666;2022-10-04T23:36:57;12.50;;;5.47;;
5553;SDS011;2800;49.528;8.666;2022-10-04T23:39:24;13.77;;;6.40;;
5553;SDS011;2800;49.528;8.666;2022-10-04T23:41:54;13.30;;;6.30;;
5553;SDS011;2800;49.528;8.666;2022-10-04T23:44:21;14.13;;;6.07;;
5553;SDS011;2800;49.528;8.666;2022-10-04T23:46:50;11.50;;;6.43;;
5553;SDS011;2800;49.528;8.666;2022-10-04T23:49:16;11.80;;;6.30;;
5553;SDS011;2800;49.528;8.666;2022-10-04T23:51:44;13.33;;;6.90;;
5553;SDS011;2800;49.528;8.666;2022-10-04T23:54:13;16.57;;;6.57;;
5553;SDS011;2800;49.528;8.666;2022-10-04T23:56:41;13.07;;;6.90;;
5553;SDS011;2800;49.528;8.666;2022-10-04T23:59:16;10.03;;;6.10;;
